Time;durP1;ratioP1;P1;durP2;ratioP2;P2;SDS_P1;SDS_P2;PMS_P1;PMS_P2;Temp;Humidity;BMP_temperature;BMP_pressure;BME280_temperature;BME280_humidity;BME280_pressure;Samples;Min_cycle;Max_cycle;Signal;HPM_P1;HPM_P2
2022/03/17 00:01:52;;;;;;;7.25;6.50;;;20.90;99.30;;;;;;4228932;28;20805;-76
2022/03/17 00:03:54;;;;;;;7.45;6.28;;;20.90;99.40;;;;;;4228606;28;20577;-76
2022/03/17 00:05:56;;;;;;;7.13;6.38;;;20.80;99.30;;;;;;4228197;28;20839;-76
2022/03/17 00:07:59;;;;;;;8.45;7.10;;;20.80;99.30;;;;;;4228839;28;20244;-75
2022/03/17 00:10:01;;;;;;;6.90;6.20;;;20.80;99.20;;;;;;4228438;28;20295;-76
2022/03/17 00:12:05;;;;;;;7.55;6.18;;;20.80;99.30;;;;;;4228630;28;20217;-76
2022/03/17 00:14:08;;;;;;;7.38;6.50;;;20.80;99.30;;;;;;4227173;28;20263;-75
2022/03/17 00:16:10;;;;;;;8.30;6.18;;;20.80;99.50;;;;;;4227472;28;20263;-76
2022/03/17 00:18:13;;;;;;;7.85;6.60;;;20.80;99.40;;;;;;4226268;28;20213;-76
2022/03/17 00:20:16;;;;;;;11.60;6.55;;;20.70;99.40;;;;;;4228288;28;20750;-75
2022/03/17 00:22:18;;;;;;;7.80;6.68;;;20.80;99.50;;;;;;4228409;28;21636;-76
2022/03/17 00:24:20;;;;;;;7.80;6.20;;;20.70;99.50;;;;;;4227371;28;20250;-75
2022/03/17 00:26:22;;;;;;;6.95;6.25;;;20.80;99.40;;;;;;4227857;28;20222;-76
2022/03/17 00:28:26;;;;;;;9.25;6.38;;;20.70;99.30;;;;;;4228276;28;20688;-76
2022/03/17 00:30:28;;;;;;;8.25;6.53;;;20.70;99.50;;;;;;4228347;28;20666;-75
2022/03/17 00:32:31;;;;;;;9.50;6.97;;;20.70;99.50;;;;;;4227285;28;20374;-75
2022/03/17 00:35:35;;;;;;;8.43;6.63;;;20.70;99.50;;;;;;4228375;28;20214;-75
2022/03/17 00:36:57;;;;;;;8.27;6.50;;;20.80;99.60;;;;;;4225599;28;20214;-75
2022/03/17 00:38:59;;;;;;;8.75;6.60;;;20.80;99.40;;;;;;4227960;28;20621;-75
2022/03/17 00:41:01;;;;;;;7.72;6.10;;;20.70;99.50;;;;;;4228266;28;20202;-76
2022/03/17 00:43:04;;;;;;;7.22;6.50;;;20.70;99.60;;;;;;4227900;28;20331;-75
2022/03/17 00:45:09;;;;;;;9.73;6.63;;;20.70;99.40;;;;;;4228552;28;20198;-75
2022/03/17 00:47:11;;;;;;;8.23;6.05;;;20.70;99.60;;;;;;4227606;28;20666;-76
2022/03/17 00:49:14;;;;;;;7.57;6.65;;;20.70;99.60;;;;;;4226549;28;20679;-76
2022/03/17 00:51:16;;;;;;;7.78;6.47;;;20.60;99.90;;;;;;4227737;28;20202;-75
2022/03/17 00:53:18;;;;;;;8.10;7.30;;;20.70;99.70;;;;;;4224914;28;20209;-76
2022/03/17 00:55:21;;;;;;;7.32;6.30;;;20.70;99.70;;;;;;4217341;28;20233;-76
2022/03/17 00:57:23;;;;;;;7.25;6.35;;;20.70;99.60;;;;;;4228186;28;20616;-75
2022/03/17 00:59:25;;;;;;;8.98;6.78;;;20.70;99.70;;;;;;4227776;28;20210;-76
2022/03/17 01:01:29;;;;;;;7.65;6.63;;;20.60;99.70;;;;;;4227977;28;20217;-76
2022/03/17 01:03:31;;;;;;;7.53;6.28;;;20.60;99.60;;;;;;4226493;28;20222;-76
2022/03/17 01:05:33;;;;;;;10.32;6.80;;;20.60;99.60;;;;;;4227752;28;20453;-76
2022/03/17 01:07:37;;;;;;;7.65;6.70;;;20.70;99.60;;;;;;4227782;28;20628;-76
2022/03/17 01:09:39;;;;;;;8.75;6.45;;;20.60;99.60;;;;;;4226233;28;20233;-75
2022/03/17 01:11:42;;;;;;;9.27;7.13;;;20.60;99.70;;;;;;4227021;28;20279;-75
2022/03/17 01:13:44;;;;;;;7.40;5.82;;;20.70;99.80;;;;;;4227636;28;20217;-75
2022/03/17 01:15:46;;;;;;;7.93;6.82;;;20.60;99.70;;;;;;4219636;28;20222;-76
2022/03/17 01:17:51;;;;;;;7.63;6.22;;;20.60;99.80;;;;;;4219411;28;20263;-75
2022/03/17 01:19:53;;;;;;;8.88;6.05;;;20.60;99.90;;;;;;4227752;28;20221;-75
2022/03/17 01:21:56;;;;;;;7.60;6.15;;;20.60;99.90;;;;;;4227309;28;20263;-75
2022/03/17 01:23:58;;;;;;;6.75;6.05;;;20.60;99.90;;;;;;4224582;28;20275;-75
2022/03/17 01:26:00;;;;;;;8.70;6.20;;;20.60;99.90;;;;;;4227824;28;20217;-76
2022/03/17 01:28:04;;;;;;;8.27;6.55;;;20.60;99.90;;;;;;4227585;28;20225;-75
2022/03/17 01:30:09;;;;;;;7.75;6.95;;;20.60;99.80;;;;;;4226366;28;20290;-75
2022/03/17 01:32:11;;;;;;;6.65;5.78;;;20.60;99.90;;;;;;4226161;28;20279;-75
2022/03/17 01:34:17;;;;;;;7.65;5.50;;;20.60;99.90;;;;;;4227040;28;20230;-76
2022/03/17 01:36:19;;;;;;;6.82;6.03;;;20.60;99.90;;;;;;4227445;28;20213;-76
2022/03/17 01:38:22;;;;;;;7.47;5.93;;;20.50;99.90;;;;;;4225482;28;20246;-75
2022/03/17 01:40:24;;;;;;;8.45;6.15;;;20.60;99.90;;;;;;4227538;28;20218;-75
2022/03/17 01:42:26;;;;;;;7.75;6.20;;;20.50;99.90;;;;;;4227342;28;20214;-75
2022/03/17 01:44:29;;;;;;;7.55;6.05;;;20.50;99.90;;;;;;4225798;28;20354;-75
2022/03/17 01:47:26;;;;;;;8.07;5.50;;;20.50;99.90;;;;;;4225250;28;20214;-75
2022/03/17 01:48:54;;;;;;;8.80;5.85;;;20.50;99.90;;;;;;4227474;28;20290;-75
2022/03/17 01:50:57;;;;;;;6.95;5.85;;;20.50;99.90;;;;;;4227060;28;20237;-75
2022/03/17 01:53:00;;;;;;;6.57;5.80;;;20.40;99.90;;;;;;4224794;28;20654;-75
2022/03/17 01:55:03;;;;;;;5.88;5.28;;;20.40;99.90;;;;;;4225900;28;20210;-75
2022/03/17 01:57:08;;;;;;;7.70;5.45;;;20.50;99.90;;;;;;4223819;28;20264;-75
2022/03/17 01:59:10;;;;;;;6.55;5.28;;;20.40;99.90;;;;;;4224559;28;20595;-75
2022/03/17 02:01:13;;;;;;;8.40;5.90;;;20.40;99.90;;;;;;4225801;28;20549;-75
2022/03/17 02:03:15;;;;;;;7.03;5.80;;;20.40;99.90;;;;;;4227280;28;20201;-75
2022/03/17 02:05:18;;;;;;;7.72;5.63;;;20.40;99.90;;;;;;4229459;28;21716;-75
2022/03/17 02:07:23;;;;;;;6.43;5.32;;;20.40;99.90;;;;;;4228370;28;20257;-75
2022/03/17 02:09:26;;;;;;;6.35;5.75;;;20.40;99.90;;;;;;4230724;28;20210;-75
2022/03/17 02:13:48;;;;;;;7.25;5.53;;;20.40;99.90;;;;;;4230671;28;20201;-75
2022/03/17 02:15:51;;;;;;;7.18;5.50;;;20.30;99.90;;;;;;4230616;28;20222;-75
2022/03/17 02:17:54;;;;;;;6.18;5.25;;;20.30;99.90;;;;;;4227672;28;20267;-75
2022/03/17 02:19:56;;;;;;;8.00;5.55;;;20.30;99.90;;;;;;4230159;28;20251;-75
2022/03/17 02:21:58;;;;;;;6.30;5.70;;;20.40;99.90;;;;;;4230295;28;20239;-75
2022/03/17 02:26:22;;;;;;;6.85;5.90;;;20.30;99.90;;;;;;4230459;28;20565;-75
2022/03/17 02:28:26;;;;;;;7.32;5.63;;;20.30;99.90;;;;;;4230415;28;20670;-75
2022/03/17 02:30:28;;;;;;;6.82;5.30;;;20.30;99.90;;;;;;4229990;28;20287;-75
2022/03/17 02:32:31;;;;;;;5.82;5.15;;;20.30;99.90;;;;;;4227325;28;20210;-75
2022/03/17 02:34:33;;;;;;;6.72;5.30;;;20.30;99.90;;;;;;4228235;28;20621;-75
2022/03/17 02:36:35;;;;;;;7.55;5.25;;;20.30;99.90;;;;;;4230090;28;20345;-75
2022/03/17 02:38:38;;;;;;;7.78;5.50;;;20.30;99.90;;;;;;4230131;28;20633;-75
2022/03/17 02:40:43;;;;;;;6.30;5.32;;;20.30;99.90;;;;;;4229306;28;20213;-75
2022/03/17 02:42:45;;;;;;;6.45;5.28;;;20.30;99.90;;;;;;4230143;28;20651;-75
2022/03/17 02:44:48;;;;;;;7.57;5.80;;;20.30;99.90;;;;;;4229406;28;20621;-76
2022/03/17 02:46:51;;;;;;;5.97;5.30;;;20.30;99.90;;;;;;4229734;28;20271;-75
2022/03/17 02:48:53;;;;;;;5.72;5.13;;;20.30;99.90;;;;;;4229579;28;20206;-75
2022/03/17 02:50:55;;;;;;;9.23;5.97;;;20.30;99.90;;;;;;4229230;28;20241;-75
2022/03/17 02:53:04;;;;;;;6.70;5.07;;;20.30;99.90;;;;;;4229337;28;20209;-75
2022/03/17 02:55:10;;;;;;;6.88;5.60;;;20.20;99.90;;;;;;4229230;28;20591;-75
2022/03/17 02:57:14;;;;;;;6.50;4.82;;;20.30;99.80;;;;;;4227553;28;20206;-75
2022/03/17 02:59:16;;;;;;;6.00;4.78;;;20.30;99.80;;;;;;4229587;28;20213;-75
2022/03/17 03:01:18;;;;;;;6.78;5.05;;;20.30;99.70;;;;;;4229747;28;20239;-75
2022/03/17 03:03:20;;;;;;;6.18;4.93;;;20.30;99.80;;;;;;4228535;28;20222;-75
2022/03/17 03:05:23;;;;;;;6.55;4.85;;;20.20;99.90;;;;;;4225775;27;20284;-75
2022/03/17 03:07:25;;;;;;;6.63;5.03;;;20.20;99.70;;;;;;4228371;28;20249;-75
2022/03/17 03:09:28;;;;;;;7.95;5.18;;;20.20;99.70;;;;;;4229891;28;20270;-75
2022/03/17 03:11:30;;;;;;;6.13;4.63;;;20.20;99.60;;;;;;4229476;28;20630;-75
2022/03/17 03:13:34;;;;;;;5.85;4.53;;;20.20;99.90;;;;;;4229416;28;20205;-75
2022/03/17 03:15:36;;;;;;;5.65;5.07;;;20.20;99.80;;;;;;4227960;28;20255;-75
2022/03/17 03:17:39;;;;;;;5.75;4.50;;;20.20;99.60;;;;;;4229412;28;20210;-75
2022/03/17 03:19:41;;;;;;;6.57;5.38;;;20.20;99.70;;;;;;4229194;28;20626;-75
2022/03/17 03:21:44;;;;;;;5.13;4.15;;;20.20;99.50;;;;;;4228910;28;20202;-75
2022/03/17 03:23:46;;;;;;;7.00;5.13;;;20.20;99.70;;;;;;4225734;28;20219;-75
2022/03/17 03:25:48;;;;;;;5.40;4.57;;;20.20;99.70;;;;;;4228891;28;20222;-75
2022/03/17 03:27:51;;;;;;;5.47;4.55;;;20.20;99.60;;;;;;4229954;28;21681;-75
2022/03/17 03:29:55;;;;;;;5.68;4.55;;;20.20;99.60;;;;;;4229772;28;20614;-75
2022/03/17 03:31:59;;;;;;;7.10;5.38;;;20.20;99.70;;;;;;4228453;28;20294;-75
2022/03/17 03:34:01;;;;;;;4.85;4.20;;;20.10;99.60;;;;;;4227487;28;20260;-75
2022/03/17 03:38:24;;;;;;;4.97;4.25;;;20.10;99.40;;;;;;4228327;28;20639;-75
2022/03/17 03:40:27;;;;;;;6.43;4.63;;;20.20;99.40;;;;;;4227828;28;20727;-76
2022/03/17 03:42:29;;;;;;;5.47;4.28;;;20.10;99.40;;;;;;4229157;28;20665;-75
2022/03/17 03:44:32;;;;;;;5.60;4.85;;;20.10;99.50;;;;;;4228558;28;20618;-75
2022/03/17 03:46:36;;;;;;;5.57;4.18;;;20.00;99.30;;;;;;4228689;27;20259;-75
2022/03/17 03:48:39;;;;;;;5.20;4.13;;;20.00;99.50;;;;;;4228056;28;20646;-75
2022/03/17 03:50:41;;;;;;;5.97;4.53;;;20.10;99.50;;;;;;4228272;28;20303;-75
2022/03/17 03:52:44;;;;;;;5.47;3.95;;;20.10;99.30;;;;;;4229283;28;20214;-75
2022/03/17 03:54:46;;;;;;;4.88;3.75;;;20.10;99.40;;;;;;4225589;28;20275;-75
2022/03/17 03:56:50;;;;;;;5.00;3.90;;;20.10;99.10;;;;;;4228576;28;20271;-75
2022/03/17 03:58:52;;;;;;;4.25;3.70;;;20.10;99.30;;;;;;4228818;28;20222;-75
2022/03/17 04:00:55;;;;;;;6.20;3.88;;;20.00;99.10;;;;;;4228953;28;20713;-75
2022/03/17 04:02:59;;;;;;;6.28;3.70;;;20.10;99.20;;;;;;4228432;28;20632;-75
2022/03/17 04:05:01;;;;;;;5.25;4.00;;;20.10;99.20;;;;;;4228915;28;20213;-75
2022/03/17 04:07:05;;;;;;;3.97;3.58;;;20.00;99.00;;;;;;4229141;28;20232;-76
2022/03/17 04:09:08;;;;;;;4.60;3.67;;;20.00;99.00;;;;;;4227589;28;20210;-76
2022/03/17 04:11:10;;;;;;;4.53;3.60;;;20.00;98.90;;;;;;4228835;28;20275;-75
2022/03/17 04:13:12;;;;;;;4.70;3.45;;;20.00;98.90;;;;;;4228545;28;20214;-75
2022/03/17 04:15:14;;;;;;;5.80;3.92;;;20.00;98.80;;;;;;4228197;28;20209;-76
2022/03/17 04:17:17;;;;;;;5.05;3.97;;;20.00;98.80;;;;;;4228561;28;20214;-75
2022/03/17 04:19:20;;;;;;;5.43;3.60;;;20.00;98.70;;;;;;4228127;28;20305;-75
2022/03/17 04:21:23;;;;;;;4.07;3.42;;;20.00;98.50;;;;;;4228814;28;20263;-75
2022/03/17 04:23:25;;;;;;;5.18;3.60;;;20.00;98.60;;;;;;4227603;28;20263;-75
2022/03/17 04:25:27;;;;;;;4.07;3.08;;;20.00;98.50;;;;;;4227938;28;20572;-75
2022/03/17 04:27:30;;;;;;;5.53;3.45;;;20.00;98.70;;;;;;4227740;28;20715;-75
2022/03/17 04:29:32;;;;;;;4.20;3.22;;;20.00;98.70;;;;;;4227466;28;20209;-75
2022/03/17 04:31:35;;;;;;;3.60;3.03;;;20.00;98.80;;;;;;4225335;28;20263;-75
2022/03/17 04:33:37;;;;;;;4.60;2.95;;;19.90;98.70;;;;;;4228788;28;20738;-75
2022/03/17 04:35:40;;;;;;;5.15;3.20;;;19.90;98.70;;;;;;4226194;28;20217;-75
2022/03/17 04:37:43;;;;;;;4.57;3.33;;;19.90;98.60;;;;;;4227991;28;20225;-75
2022/03/17 04:39:45;;;;;;;5.40;3.05;;;20.00;98.60;;;;;;4228434;28;20715;-75
2022/03/17 04:41:48;;;;;;;5.70;3.30;;;20.00;98.40;;;;;;4226978;28;20214;-75
2022/03/17 04:43:50;;;;;;;4.82;3.10;;;19.90;98.20;;;;;;4227309;28;20255;-75
2022/03/17 04:45:53;;;;;;;6.10;3.38;;;19.90;98.30;;;;;;4226382;28;20271;-75
2022/03/17 04:47:55;;;;;;;5.18;3.53;;;20.00;98.20;;;;;;4227381;28;20217;-75
2022/03/17 04:49:57;;;;;;;5.28;3.33;;;19.90;98.00;;;;;;4228043;28;20217;-75
2022/03/17 04:52:01;;;;;;;4.72;2.97;;;19.90;98.00;;;;;;4221355;28;20690;-75
2022/03/17 04:54:03;;;;;;;4.93;3.03;;;19.90;98.00;;;;;;4205271;28;20253;-75
2022/03/17 04:56:08;;;;;;;3.97;3.08;;;19.90;98.00;;;;;;4227590;28;20228;-75
2022/03/17 04:58:10;;;;;;;4.40;2.92;;;19.90;98.00;;;;;;4226255;28;20971;-75
2022/03/17 05:00:14;;;;;;;3.47;2.80;;;19.90;98.00;;;;;;4228489;28;20221;-75
2022/03/17 05:02:17;;;;;;;5.95;3.25;;;19.80;98.00;;;;;;4226814;28;20221;-75
2022/03/17 05:04:19;;;;;;;4.38;2.90;;;19.90;98.40;;;;;;4224818;28;20217;-75
2022/03/17 05:06:21;;;;;;;2.60;2.35;;;19.90;98.00;;;;;;4227796;28;20270;-75
2022/03/17 05:08:25;;;;;;;3.15;2.70;;;19.80;98.00;;;;;;4227401;28;20275;-75
2022/03/17 05:10:28;;;;;;;5.63;3.05;;;19.90;98.00;;;;;;4227875;28;20209;-75
2022/03/17 05:12:32;;;;;;;3.05;2.67;;;19.90;98.00;;;;;;4227496;28;20225;-75
2022/03/17 05:14:34;;;;;;;3.22;2.78;;;19.80;98.00;;;;;;4227716;28;20259;-75
2022/03/17 05:16:38;;;;;;;2.60;2.40;;;19.80;98.00;;;;;;4227647;28;20210;-75
2022/03/17 05:18:40;;;;;;;3.67;2.53;;;19.80;98.00;;;;;;4226511;28;20703;-75
2022/03/17 05:20:42;;;;;;;4.82;3.10;;;19.80;97.90;;;;;;4227158;28;20206;-75
2022/03/17 05:22:45;;;;;;;3.50;2.80;;;19.80;97.80;;;;;;4223382;28;20210;-76
2022/03/17 05:24:50;;;;;;;3.40;2.65;;;19.90;97.80;;;;;;4230012;28;20623;-75
2022/03/17 05:26:53;;;;;;;3.45;2.42;;;19.80;97.80;;;;;;4226719;28;20291;-75
2022/03/17 05:28:55;;;;;;;3.45;2.08;;;19.80;97.80;;;;;;4227630;28;20206;-76
2022/03/17 05:30:58;;;;;;;4.88;2.80;;;19.80;97.80;;;;;;4227692;28;20266;-75
2022/03/17 05:33:00;;;;;;;3.05;2.50;;;19.80;97.90;;;;;;4227079;28;20265;-75
2022/03/17 05:35:03;;;;;;;4.43;2.75;;;19.80;97.80;;;;;;4227632;28;20247;-76
2022/03/17 05:37:05;;;;;;;3.67;2.30;;;19.80;97.80;;;;;;4227391;28;20210;-75
2022/03/17 05:39:07;;;;;;;3.95;2.58;;;19.80;97.70;;;;;;4214464;28;20291;-75
2022/03/17 05:41:11;;;;;;;3.33;2.25;;;19.80;97.60;;;;;;4214113;28;20917;-75
2022/03/17 05:43:14;;;;;;;3.92;2.22;;;19.80;97.70;;;;;;4200994;28;20237;-75
2022/03/17 05:45:17;;;;;;;4.35;2.50;;;19.80;97.50;;;;;;4220473;28;20206;-75
2022/03/17 05:47:19;;;;;;;3.05;2.30;;;19.80;97.60;;;;;;4220135;28;20263;-75
2022/03/17 05:49:21;;;;;;;4.80;2.40;;;19.80;97.50;;;;;;4214604;28;20210;-75
2022/03/17 05:51:24;;;;;;;4.25;2.47;;;19.80;97.50;;;;;;4219214;28;20256;-75
2022/03/17 05:53:26;;;;;;;4.15;2.80;;;19.80;97.50;;;;;;4214319;28;20218;-75
2022/03/17 05:55:29;;;;;;;3.55;2.40;;;19.70;97.60;;;;;;4212353;28;20279;-75
2022/03/17 05:57:34;;;;;;;5.18;2.50;;;19.70;97.60;;;;;;4214424;28;20211;-75
2022/03/17 05:59:39;;;;;;;3.10;2.20;;;19.70;97.50;;;;;;4214345;28;20615;-75
2022/03/17 06:01:41;;;;;;;3.45;2.70;;;19.70;97.80;;;;;;4213741;28;20604;-75
2022/03/17 06:03:44;;;;;;;3.72;2.53;;;19.70;97.40;;;;;;4213888;28;20603;-75
2022/03/17 06:05:46;;;;;;;3.00;2.33;;;19.70;97.40;;;;;;4213897;28;20233;-75
2022/03/17 06:07:50;;;;;;;5.78;2.50;;;19.80;97.60;;;;;;4213912;28;20271;-75
2022/03/17 06:09:56;;;;;;;5.10;2.30;;;19.80;97.70;;;;;;4212470;28;20222;-75
2022/03/17 06:11:58;;;;;;;3.25;2.22;;;19.80;97.70;;;;;;4212519;28;20271;-75
2022/03/17 06:14:02;;;;;;;3.42;2.30;;;19.70;97.70;;;;;;4213866;28;20250;-75
2022/03/17 06:16:05;;;;;;;2.67;1.83;;;19.80;97.80;;;;;;4213494;28;20645;-75
2022/03/17 06:18:08;;;;;;;3.80;2.03;;;19.80;97.90;;;;;;4213745;28;20272;-75
2022/03/17 06:20:12;;;;;;;4.22;2.05;;;19.70;97.90;;;;;;4213887;28;20279;-75
2022/03/17 06:22:15;;;;;;;3.83;2.10;;;19.80;97.90;;;;;;4213015;28;20218;-76
2022/03/17 06:24:17;;;;;;;4.18;2.13;;;19.70;97.70;;;;;;4213241;28;20215;-75
2022/03/17 06:26:19;;;;;;;3.05;2.10;;;19.80;97.80;;;;;;4213974;28;20219;-75
2022/03/17 06:28:21;;;;;;;2.53;1.95;;;19.80;97.80;;;;;;4212889;28;20218;-75
2022/03/17 06:30:27;;;;;;;2.78;1.98;;;19.80;97.90;;;;;;4214478;28;20214;-75
2022/03/17 06:32:29;;;;;;;2.83;2.05;;;19.80;97.90;;;;;;4213744;28;20237;-75
2022/03/17 06:34:32;;;;;;;2.55;1.63;;;19.80;97.80;;;;;;4213182;28;20222;-75
2022/03/17 06:36:34;;;;;;;2.72;2.05;;;19.80;97.70;;;;;;4213662;28;20257;-75
2022/03/17 06:38:36;;;;;;;2.90;1.80;;;19.80;97.90;;;;;;4207801;28;20234;-75
2022/03/17 06:40:39;;;;;;;2.75;1.80;;;19.90;98.00;;;;;;4208787;28;20215;-75
2022/03/17 06:42:41;;;;;;;2.72;1.77;;;19.90;97.80;;;;;;4206619;28;20218;-75
2022/03/17 06:44:44;;;;;;;2.95;2.13;;;19.90;97.70;;;;;;4212007;28;20666;-75
2022/03/17 06:46:47;;;;;;;2.78;2.00;;;19.90;97.80;;;;;;4213008;28;20621;-75
2022/03/17 06:48:50;;;;;;;3.33;2.00;;;19.80;97.70;;;;;;4213131;28;20214;-75
2022/03/17 06:50:52;;;;;;;3.03;1.85;;;19.90;97.70;;;;;;4212070;28;20364;-75
2022/03/17 06:52:55;;;;;;;3.03;1.70;;;19.90;97.70;;;;;;4212818;28;20581;-75
2022/03/17 06:54:57;;;;;;;2.88;1.90;;;19.90;97.70;;;;;;4212925;28;20260;-75
2022/03/17 06:57:00;;;;;;;2.58;1.90;;;19.90;97.60;;;;;;4212232;28;20443;-76
2022/03/17 06:59:02;;;;;;;2.40;1.90;;;19.90;97.70;;;;;;4212970;28;20543;-76
2022/03/17 07:01:05;;;;;;;2.17;1.83;;;19.90;97.60;;;;;;4212964;28;20252;-76
2022/03/17 07:03:08;;;;;;;3.33;1.77;;;19.90;97.60;;;;;;4212809;28;20207;-76
2022/03/17 07:05:11;;;;;;;1.88;1.63;;;19.90;97.50;;;;;;4210846;28;20593;-76
2022/03/17 07:07:14;;;;;;;1.95;1.75;;;19.90;97.50;;;;;;4212638;28;20215;-76
2022/03/17 07:09:16;;;;;;;2.35;1.60;;;19.90;97.50;;;;;;4211862;28;20269;-76
2022/03/17 07:11:20;;;;;;;2.50;1.85;;;19.90;97.70;;;;;;4208736;28;20635;-76
2022/03/17 07:13:22;;;;;;;2.00;1.67;;;20.00;97.50;;;;;;4212410;28;20292;-76
2022/03/17 07:15:24;;;;;;;3.15;1.60;;;20.00;97.70;;;;;;4211172;28;20218;-75
2022/03/17 07:17:27;;;;;;;2.85;1.65;;;20.00;97.60;;;;;;4211609;28;20210;-75
2022/03/17 07:19:31;;;;;;;3.45;1.55;;;20.00;97.80;;;;;;4210906;28;20303;-76
2022/03/17 07:21:33;;;;;;;3.00;1.52;;;19.90;97.50;;;;;;4211533;28;20211;-75
2022/03/17 07:23:35;;;;;;;3.22;1.58;;;20.00;97.60;;;;;;4211983;28;20256;-76
2022/03/17 07:25:37;;;;;;;2.60;1.50;;;20.00;97.40;;;;;;4212029;28;20737;-75
2022/03/17 07:27:42;;;;;;;3.20;1.90;;;20.00;97.70;;;;;;4212701;28;20614;-76
2022/03/17 07:29:45;;;;;;;3.55;1.52;;;20.00;97.40;;;;;;4212545;28;20278;-76
2022/03/17 07:31:47;;;;;;;3.50;1.83;;;20.00;97.10;;;;;;4207558;28;20218;-76
2022/03/17 07:33:49;;;;;;;1.88;1.40;;;20.00;97.30;;;;;;4211414;28;20247;-76
2022/03/17 07:35:53;;;;;;;2.53;1.63;;;20.00;97.60;;;;;;4211668;28;20263;-76
2022/03/17 07:37:58;;;;;;;3.17;1.50;;;20.00;97.30;;;;;;4216431;28;20237;-76
2022/03/17 07:40:00;;;;;;;2.28;1.60;;;20.10;97.60;;;;;;4228381;28;20270;-76
2022/03/17 07:42:05;;;;;;;4.00;1.73;;;20.00;97.60;;;;;;4227359;28;20222;-76
2022/03/17 07:44:07;;;;;;;2.25;1.33;;;20.10;97.30;;;;;;4226589;28;20206;-76
2022/03/17 07:46:09;;;;;;;3.05;1.40;;;20.10;97.20;;;;;;4228858;28;20213;-75
2022/03/17 07:48:12;;;;;;;2.38;1.15;;;20.00;97.20;;;;;;4228727;28;20271;-76
2022/03/17 07:50:15;;;;;;;2.65;1.52;;;20.10;97.20;;;;;;4228704;28;20218;-75
2022/03/17 07:52:18;;;;;;;3.92;2.10;;;20.10;97.10;;;;;;4225231;28;20209;-77
2022/03/17 07:54:21;;;;;;;2.60;1.77;;;20.10;96.70;;;;;;4226120;28;20299;-77
2022/03/17 07:56:23;;;;;;;5.63;2.13;;;20.20;96.70;;;;;;4216513;27;20217;-76
2022/03/17 07:58:26;;;;;;;3.97;2.13;;;20.30;96.90;;;;;;4222065;28;20210;-76
2022/03/17 08:00:28;;;;;;;2.78;1.95;;;20.40;96.50;;;;;;4220205;27;20223;-76
2022/03/17 08:02:31;;;;;;;3.70;2.20;;;20.80;96.00;;;;;;4220675;28;20217;-75
2022/03/17 08:04:34;;;;;;;3.88;1.90;;;21.00;95.40;;;;;;4222819;27;20218;-75
2022/03/17 08:06:37;;;;;;;2.75;1.85;;;21.30;95.20;;;;;;4221133;27;20218;-76
2022/03/17 08:08:42;;;;;;;2.58;1.77;;;21.50;95.00;;;;;;4217886;27;20294;-76
2022/03/17 08:10:44;;;;;;;4.70;1.90;;;21.60;94.80;;;;;;4214886;28;20214;-76
2022/03/17 08:12:48;;;;;;;3.85;1.60;;;21.70;94.10;;;;;;4219505;27;20285;-75
2022/03/17 08:14:53;;;;;;;3.15;2.10;;;21.70;94.00;;;;;;4223194;27;20218;-76
2022/03/17 08:16:56;;;;;;;2.40;1.77;;;21.70;93.90;;;;;;4221032;28;20218;-76
2022/03/17 08:18:58;;;;;;;4.25;1.80;;;21.80;93.70;;;;;;4225448;27;21535;-76
2022/03/17 08:21:00;;;;;;;4.53;2.20;;;21.90;93.50;;;;;;4224330;27;20218;-76
2022/03/17 08:23:03;;;;;;;5.38;2.20;;;22.00;93.30;;;;;;4218515;27;20247;-76
2022/03/17 08:25:08;;;;;;;3.75;1.80;;;22.10;93.00;;;;;;4219355;28;20218;-76
2022/03/17 08:27:10;;;;;;;6.20;2.03;;;22.20;92.80;;;;;;4215421;27;20274;-77
2022/03/17 08:29:12;;;;;;;3.42;1.80;;;22.10;93.10;;;;;;4219419;27;20213;-77
2022/03/17 08:31:15;;;;;;;3.40;1.90;;;22.10;92.90;;;;;;4221126;27;20214;-77
2022/03/17 08:33:19;;;;;;;4.80;1.65;;;22.20;92.90;;;;;;4220310;28;20237;-77
2022/03/17 08:35:21;;;;;;;3.40;1.58;;;22.20;93.10;;;;;;4215668;28;20218;-76
2022/03/17 08:37:23;;;;;;;5.15;1.77;;;22.30;92.90;;;;;;4222005;28;20213;-76
2022/03/17 08:39:26;;;;;;;3.38;1.92;;;22.40;92.70;;;;;;4221223;28;20274;-76
2022/03/17 08:41:30;;;;;;;5.05;1.95;;;22.50;92.60;;;;;;4220304;28;20214;-76
2022/03/17 08:43:32;;;;;;;5.82;1.92;;;22.40;92.60;;;;;;4221138;27;20255;-77
2022/03/17 08:50:14;;;;;;;5.05;1.70;;;22.60;92.70;;;;;;4219775;28;20186;-76
2022/03/17 08:52:19;;;;;;;3.85;1.73;;;22.60;92.50;;;;;;4220780;28;21160;-75
2022/03/17 08:54:23;;;;;;;3.83;1.60;;;22.70;92.80;;;;;;4221490;28;20241;-75
2022/03/17 08:56:25;;;;;;;3.58;1.70;;;22.90;92.40;;;;;;4222584;28;20206;-76
2022/03/17 08:58:29;;;;;;;6.18;1.88;;;22.90;92.30;;;;;;4220610;27;20218;-77
2022/03/17 09:00:34;;;;;;;3.67;1.63;;;22.90;92.30;;;;;;4221385;28;20607;-76
2022/03/17 09:02:36;;;;;;;2.90;1.70;;;22.90;92.60;;;;;;4219453;27;20269;-77
2022/03/17 09:04:39;;;;;;;3.17;1.50;;;22.90;92.30;;;;;;4223221;27;20202;-77
2022/03/17 09:06:43;;;;;;;2.25;1.52;;;22.80;92.10;;;;;;4220917;28;20263;-77
2022/03/17 09:08:46;;;;;;;2.80;1.65;;;22.80;92.20;;;;;;4222161;28;21146;-75
2022/03/17 09:10:49;;;;;;;2.03;1.35;;;22.80;92.10;;;;;;4222388;28;20229;-75
2022/03/17 09:12:57;;;;;;;2.55;1.20;;;22.90;91.90;;;;;;4222711;28;20214;-75
2022/03/17 09:15:01;;;;;;;4.38;1.65;;;23.00;91.70;;;;;;4220038;28;20681;-74
2022/03/17 09:17:04;;;;;;;2.03;1.27;;;23.00;91.60;;;;;;4220348;28;20311;-75
2022/03/17 09:19:06;;;;;;;4.60;1.60;;;23.00;91.80;;;;;;4216712;28;20217;-77
2022/03/17 09:21:09;;;;;;;3.47;1.40;;;22.80;91.70;;;;;;4219078;28;20218;-77
2022/03/17 09:23:11;;;;;;;3.45;1.33;;;22.80;91.80;;;;;;4221616;28;20222;-77
2022/03/17 09:25:14;;;;;;;3.45;1.40;;;22.80;91.90;;;;;;4220905;28;20210;-76
2022/03/17 09:27:16;;;;;;;4.30;1.58;;;22.90;91.60;;;;;;4221740;28;20251;-77
2022/03/17 09:29:19;;;;;;;5.10;1.45;;;23.00;91.50;;;;;;4219777;28;20213;-77
2022/03/17 09:31:23;;;;;;;1.88;1.20;;;23.00;91.80;;;;;;4221838;28;20221;-77
2022/03/17 09:33:25;;;;;;;2.92;1.42;;;23.00;91.60;;;;;;4218877;28;20221;-77
2022/03/17 09:35:28;;;;;;;1.85;1.35;;;23.00;91.20;;;;;;4222444;28;20665;-77
2022/03/17 09:37:30;;;;;;;2.47;1.30;;;23.00;91.20;;;;;;4219737;28;20222;-77
2022/03/17 09:39:45;;;;;;;3.85;1.50;;;23.00;91.20;;;;;;4218977;28;20218;-74
2022/03/17 09:41:47;;;;;;;2.20;1.50;;;23.10;91.40;;;;;;4222490;28;20217;-74
2022/03/17 09:43:50;;;;;;;3.35;1.55;;;23.30;91.10;;;;;;4219250;28;20800;-74
2022/03/17 09:45:54;;;;;;;3.35;1.65;;;23.40;91.10;;;;;;4222105;28;20278;-77
2022/03/17 09:47:58;;;;;;;2.25;1.52;;;23.40;91.00;;;;;;4218449;28;20221;-77
2022/03/17 09:50:01;;;;;;;3.80;1.50;;;23.40;90.90;;;;;;4220199;28;20271;-76
2022/03/17 09:52:11;;;;;;;4.13;1.95;;;23.30;90.90;;;;;;4219404;28;20268;-76
2022/03/17 09:54:13;;;;;;;2.63;1.30;;;23.20;91.10;;;;;;4220502;28;20241;-77
2022/03/17 09:56:16;;;;;;;2.72;1.42;;;23.00;90.90;;;;;;4219223;28;20222;-77
2022/03/17 09:58:18;;;;;;;3.00;1.50;;;23.00;91.10;;;;;;4223755;28;20263;-77
2022/03/17 10:00:21;;;;;;;3.22;1.20;;;23.30;90.80;;;;;;4220986;28;20222;-76
2022/03/17 10:02:24;;;;;;;3.22;1.30;;;23.40;90.50;;;;;;4220646;28;20249;-76
2022/03/17 10:04:31;;;;;;;2.05;1.30;;;23.40;90.60;;;;;;4222864;28;20714;-76
2022/03/17 10:06:34;;;;;;;3.42;1.40;;;23.40;90.80;;;;;;4219394;28;20270;-75
2022/03/17 10:08:38;;;;;;;2.70;1.48;;;23.40;90.70;;;;;;4217125;28;20731;-77
2022/03/17 10:10:42;;;;;;;2.58;1.30;;;23.30;90.70;;;;;;4217906;28;20269;-76
2022/03/17 10:12:44;;;;;;;5.93;1.67;;;23.30;90.70;;;;;;4224709;28;20662;-76
2022/03/17 10:14:48;;;;;;;2.45;1.35;;;23.40;90.70;;;;;;4222668;28;20226;-76
2022/03/17 10:16:50;;;;;;;3.80;1.60;;;23.40;90.60;;;;;;4219139;28;20670;-77
2022/03/17 10:18:59;;;;;;;2.78;1.38;;;23.50;90.40;;;;;;4221757;28;20210;-77
2022/03/17 10:21:11;;;;;;;3.22;1.10;;;23.50;90.10;;;;;;4211866;28;20217;-76
2022/03/17 10:23:14;;;;;;;3.45;1.40;;;23.50;90.00;;;;;;4217982;28;20214;-76
2022/03/17 10:25:19;;;;;;;2.67;1.65;;;23.40;90.10;;;;;;4218075;28;20198;-76
2022/03/17 10:27:37;;;;;;;3.05;1.63;;;23.30;90.30;;;;;;4224243;28;20226;-76
2022/03/17 10:29:39;;;;;;;2.60;1.50;;;23.30;90.40;;;;;;4224433;28;20218;-77
2022/03/17 10:31:58;;;;;;;1.88;1.30;;;23.40;90.80;;;;;;4224956;28;20222;-77
2022/03/17 10:34:05;;;;;;;1.73;1.10;;;23.50;90.00;;;;;;4224210;28;20690;-77
2022/03/17 10:36:21;;;;;;;2.83;1.42;;;23.60;90.20;;;;;;4220849;27;20218;-77
2022/03/17 10:38:25;;;;;;;2.58;1.30;;;23.60;89.70;;;;;;4221998;27;20237;-77
2022/03/17 10:40:32;;;;;;;2.17;1.13;;;23.60;90.10;;;;;;4218337;28;20210;-76
2022/03/17 10:42:34;;;;;;;2.55;1.50;;;23.30;90.00;;;;;;4225588;27;20279;-76
2022/03/17 10:44:39;;;;;;;2.42;1.35;;;23.40;90.00;;;;;;4220708;27;20267;-77
2022/03/17 10:46:54;;;;;;;2.65;1.42;;;23.50;89.80;;;;;;4217836;27;20251;-76
2022/03/17 10:48:58;;;;;;;2.55;1.52;;;23.60;90.00;;;;;;4223599;28;20213;-77
2022/03/17 10:51:01;;;;;;;4.05;1.55;;;23.70;89.80;;;;;;4221967;27;20263;-77
2022/03/17 10:53:05;;;;;;;8.25;1.58;;;23.70;89.00;;;;;;4213333;27;20218;-77
2022/03/17 10:55:09;;;;;;;2.13;1.30;;;23.70;89.40;;;;;;4215258;27;20288;-77